createdAt,value
2022-09-16T04:31:25.896Z,99.90
2022-09-16T04:33:54.031Z,99.90
2022-09-16T04:36:21.974Z,99.90
2022-09-16T04:38:50.687Z,99.90
2022-09-16T04:41:20.299Z,99.90
2022-09-16T04:43:52.136Z,99.90
2022-09-16T04:46:20.611Z,99.90
2022-09-16T04:48:50.479Z,99.90
2022-09-16T04:51:19.627Z,99.90
2022-09-16T04:53:48.295Z,99.90
2022-09-16T04:56:18.111Z,99.90
2022-09-16T04:58:48.006Z,99.90
2022-09-16T08:47:39.048Z,99.90
2022-09-16T08:57:28.122Z,99.90
2022-09-16T08:59:58.830Z,99.90
2022-09-16T09:05:20.006Z,99.90
2022-09-16T09:08:05.968Z,99.90
2022-09-16T09:10:43.782Z,99.90
2022-09-16T09:27:28.379Z,99.90
2022-09-16T09:30:07.107Z,99.90
2022-09-16T09:32:52.244Z,99.90
2022-09-16T09:35:31.102Z,99.90
2022-09-16T09:38:42.640Z,99.90
2022-09-16T09:41:13.418Z,99.90
2022-09-16T09:43:46.109Z,99.90
2022-09-16T09:46:19.140Z,99.90
2022-09-16T09:48:51.710Z,99.90
2022-09-16T09:51:27.777Z,99.90
2022-09-16T09:54:01.256Z,99.90
2022-09-16T10:03:54.415Z,99.90
2022-09-16T10:06:27.621Z,99.90
2022-09-16T10:08:58.947Z,99.90
2022-09-16T10:11:31.087Z,99.90
2022-09-16T10:28:27.799Z,99.90
2022-09-16T10:30:58.174Z,99.90
2022-09-16T10:40:57.986Z,99.90
2022-09-16T10:43:27.781Z,96.70
2022-09-16T10:45:56.647Z,99.90
2022-09-16T10:55:42.332Z,85.60
2022-09-16T10:58:15.639Z,81.10
2022-09-16T11:00:51.503Z,74.70
2022-09-16T11:03:49.632Z,62.60
2022-09-16T11:06:31.670Z,57.10
2022-09-16T11:09:08.817Z,58.10
2022-09-16T11:11:49.871Z,56.10
2022-09-16T11:14:28.471Z,57.80
2022-09-16T11:17:16.452Z,54.70
2022-09-16T11:20:01.844Z,50.50
2022-09-16T11:22:38.187Z,54.80
2022-09-16T11:25:34.573Z,57.30
2022-09-16T11:28:28.436Z,57.80
2022-09-16T11:31:05.187Z,52.90
2022-09-16T11:33:40.506Z,46.10
2022-09-16T11:36:32.664Z,39.70
2022-09-16T11:39:14.804Z,44.40
2022-09-16T11:41:51.843Z,48.70
2022-09-16T11:44:38.742Z,54.40
2022-09-16T11:47:42.565Z,56.00
2022-09-16T11:50:22.083Z,59.40
2022-09-16T11:53:18.592Z,62.00
2022-09-16T11:55:53.784Z,60.80
2022-09-16T11:58:28.672Z,63.60
2022-09-16T12:01:02.789Z,66.00
2022-09-16T12:03:38.967Z,65.30
2022-09-16T12:06:11.556Z,64.40
2022-09-16T12:08:51.257Z,76.60
2022-09-16T12:11:23.129Z,81.00
2022-09-16T12:14:05.651Z,91.40
2022-09-16T12:16:41.449Z,87.30
2022-09-16T12:19:15.826Z,91.30
2022-09-16T12:21:49.712Z,91.50
2022-09-16T12:24:24.682Z,90.00
2022-09-16T12:27:01.199Z,95.60
2022-09-16T12:29:36.043Z,74.40
2022-09-16T12:32:10.033Z,81.50
2022-09-16T12:34:41.102Z,80.80
2022-09-16T12:37:26.451Z,75.00
2022-09-16T12:39:54.556Z,75.90
2022-09-16T12:42:57.725Z,57.40
2022-09-16T12:46:13.642Z,51.30
2022-09-16T12:49:12.502Z,48.70
2022-09-16T12:51:54.445Z,48.10
2022-09-16T12:55:07.723Z,45.10
2022-09-16T12:57:48.828Z,43.10
2022-09-16T13:00:21.627Z,38.20
2022-09-16T13:02:53.162Z,31.90
2022-09-16T13:05:30.912Z,33.70
2022-09-16T13:08:04.229Z,32.30
2022-09-16T13:10:54.341Z,35.80
2022-09-16T13:13:31.050Z,33.70
2022-09-16T13:16:01.636Z,36.00
2022-09-16T13:18:42.028Z,38.80
2022-09-16T13:21:22.663Z,41.90
2022-09-16T13:23:58.810Z,34.10
2022-09-16T13:26:26.967Z,32.30
2022-09-16T13:28:57.168Z,29.50
2022-09-16T13:31:34.230Z,35.10
2022-09-16T13:34:17.261Z,29.90
2022-09-16T13:36:46.877Z,30.60
2022-09-16T13:39:17.388Z,30.20
2022-09-16T13:41:49.105Z,35.40
2022-09-16T13:44:40.240Z,30.10
2022-09-16T13:47:18.443Z,28.70
2022-09-16T13:49:51.751Z,25.90
2022-09-16T13:52:25.833Z,25.70
2022-09-16T13:55:12.296Z,21.70
2022-09-16T13:58:02.627Z,19.50
2022-09-16T14:00:38.794Z,17.60
2022-09-16T14:03:28.414Z,19.40
2022-09-16T14:06:19.984Z,14.80
2022-09-16T14:08:58.998Z,15.90
2022-09-16T14:11:37.613Z,11.90
2022-09-16T14:14:15.655Z,7.60
2022-09-16T14:16:53.940Z,8.90
2022-09-16T14:19:27.826Z,6.70
2022-09-16T14:22:02.967Z,5.50
2022-09-16T14:24:37.308Z,5.20
2022-09-16T14:27:06.602Z,3.50
2022-09-16T14:29:34.677Z,4.60
2022-09-16T14:32:05.785Z,1.00
2022-09-16T14:34:37.327Z,1.20
2022-09-16T14:37:06.429Z,1.90
2022-09-16T14:39:45.697Z,5.80
2022-09-16T14:42:18.804Z,4.50
2022-09-16T14:44:49.188Z,1.00
2022-09-16T14:47:39.691Z,1.00
2022-09-16T14:50:17.389Z,1.00
2022-09-16T14:52:55.702Z,1.00
2022-09-16T14:55:30.274Z,1.00
2022-09-16T14:57:59.104Z,1.00
2022-09-16T15:00:31.471Z,1.00
2022-09-16T15:03:04.699Z,1.00
2022-09-16T15:05:35.704Z,1.00
2022-09-16T15:08:14.980Z,1.00
2022-09-16T15:10:55.309Z,1.00
2022-09-16T15:13:27.428Z,1.00
2022-09-16T15:15:58.552Z,1.00
2022-09-16T15:18:29.639Z,1.00
2022-09-16T15:21:06.241Z,1.00
2022-09-16T15:23:36.095Z,2.00
2022-09-16T15:26:14.488Z,11.90
2022-09-16T15:28:57.370Z,19.20
2022-09-16T15:31:34.795Z,23.60
2022-09-16T15:34:06.144Z,19.90
2022-09-16T15:36:39.844Z,20.70
2022-09-16T15:39:23.543Z,18.60
2022-09-16T15:42:06.222Z,13.30
2022-09-16T15:44:37.287Z,10.90
2022-09-16T15:47:06.190Z,6.30
2022-09-16T15:49:40.414Z,1.00
2022-09-16T15:52:11.588Z,1.00
2022-09-16T15:54:48.923Z,1.00
2022-09-16T15:57:28.775Z,1.00
2022-09-16T16:00:09.400Z,1.00
2022-09-16T16:02:41.220Z,1.00
2022-09-16T16:05:11.835Z,1.00
2022-09-16T16:07:42.678Z,1.00
2022-09-16T16:10:20.349Z,1.00
2022-09-16T16:12:50.418Z,1.00
2022-09-16T16:15:20.444Z,1.00
2022-09-16T16:17:49.526Z,1.00
2022-09-16T16:20:20.115Z,1.00
2022-09-16T16:22:49.242Z,1.00
2022-09-16T16:25:18.333Z,1.00
2022-09-16T16:27:46.789Z,1.00
2022-09-16T16:30:16.314Z,1.00
2022-09-16T16:32:44.736Z,1.00
2022-09-16T16:35:13.322Z,1.00
2022-09-16T16:37:46.582Z,1.00
2022-09-16T16:40:15.965Z,1.00
2022-09-16T16:42:44.475Z,1.00
2022-09-16T16:45:14.530Z,1.00
2022-09-16T16:47:44.869Z,1.00
2022-09-16T16:50:13.004Z,1.00
2022-09-16T16:52:41.005Z,1.00
2022-09-16T16:55:10.299Z,1.00
2022-09-16T16:57:38.344Z,1.00
2022-09-16T17:00:07.468Z,1.00
2022-09-16T17:02:35.536Z,1.00
2022-09-16T17:05:05.865Z,1.00
2022-09-16T17:07:33.891Z,1.00
2022-09-16T17:10:01.888Z,1.00
2022-09-16T17:12:30.031Z,1.70
2022-09-16T17:14:58.067Z,6.00
2022-09-16T17:17:30.677Z,5.00
2022-09-16T17:20:00.341Z,5.90
2022-09-16T17:22:29.706Z,8.50
2022-09-16T17:24:58.034Z,10.30
2022-09-16T17:27:27.677Z,9.70
2022-09-16T17:29:55.648Z,11.80
2022-09-16T17:32:23.610Z,11.10
2022-09-16T17:34:51.568Z,14.60
2022-09-16T17:37:19.974Z,16.50
2022-09-16T17:39:49.854Z,16.40
2022-09-16T17:42:17.939Z,14.80
2022-09-16T17:44:45.866Z,12.60
2022-09-16T17:47:13.815Z,11.50
2022-09-16T17:49:41.816Z,3.90
2022-09-16T17:52:09.826Z,2.60
2022-09-16T17:54:38.044Z,2.40
2022-09-16T17:57:07.426Z,1.10
2022-09-16T17:59:35.387Z,1.90
2022-09-16T18:02:11.515Z,2.40
2022-09-16T18:04:39.466Z,4.20
2022-09-16T18:07:07.562Z,5.10
2022-09-16T18:09:35.488Z,6.90
2022-09-16T18:12:03.858Z,10.50
2022-09-16T18:14:33.572Z,15.40
2022-09-16T18:17:01.559Z,16.70
2022-09-16T18:19:29.720Z,19.70
2022-09-16T18:21:57.688Z,21.10
2022-09-16T18:24:25.656Z,23.00
2022-09-16T18:26:53.621Z,26.70
2022-09-16T18:29:21.800Z,30.00
2022-09-16T18:31:52.733Z,34.10
2022-09-16T18:34:20.771Z,35.90
2022-09-16T18:36:48.775Z,38.80
2022-09-16T18:39:18.308Z,41.40
2022-09-16T18:41:47.420Z,44.30
2022-09-16T18:44:17.276Z,46.60
2022-09-16T18:46:45.507Z,48.80
2022-09-16T18:49:16.520Z,50.30
2022-09-16T18:51:50.089Z,53.90
2022-09-16T18:54:24.681Z,56.50
2022-09-16T18:56:53.327Z,57.90
2022-09-16T18:59:24.391Z,59.80
2022-09-16T19:01:54.295Z,63.20
2022-09-16T19:04:27.194Z,65.20
2022-09-16T19:06:59.329Z,68.20
2022-09-16T19:09:27.730Z,70.40
2022-09-16T19:11:56.230Z,72.20
2022-09-16T19:14:27.443Z,75.40
2022-09-16T19:16:56.130Z,76.10
2022-09-16T19:19:25.485Z,77.00
2022-09-16T19:21:53.682Z,78.20
2022-09-16T19:24:23.566Z,79.30
2022-09-16T19:26:54.901Z,80.20
2022-09-16T19:29:26.519Z,82.50
2022-09-16T19:31:54.720Z,82.30
2022-09-16T19:34:23.355Z,82.70
2022-09-16T19:36:52.703Z,81.00
2022-09-16T19:39:21.452Z,77.30
2022-09-16T19:41:49.826Z,74.10
2022-09-16T19:44:18.951Z,74.30
2022-09-16T19:46:49.309Z,72.20
2022-09-16T19:49:20.600Z,74.20
2022-09-16T19:51:49.480Z,74.00
2022-09-16T19:54:19.479Z,77.30
2022-09-16T19:56:50.688Z,78.80
2022-09-16T19:59:19.769Z,83.40
2022-09-16T20:01:47.887Z,85.50
2022-09-16T20:04:19.518Z,88.60
2022-09-16T20:06:48.239Z,89.40
2022-09-16T20:09:16.919Z,91.00
2022-09-16T20:11:48.102Z,92.50
2022-09-16T20:14:18.984Z,92.90
2022-09-16T20:16:47.505Z,93.30
2022-09-16T20:19:17.520Z,92.90
2022-09-16T20:21:45.745Z,93.70
2022-09-16T20:24:16.531Z,94.90
2022-09-16T20:26:46.034Z,95.80
2022-09-16T20:29:14.330Z,96.80
2022-09-16T20:31:42.796Z,97.60
2022-09-16T20:34:12.477Z,98.20
2022-09-16T20:36:41.020Z,98.80
2022-09-16T20:39:10.252Z,99.90
2022-09-16T20:41:40.319Z,99.00
2022-09-16T20:44:13.847Z,99.90
2022-09-16T20:46:41.925Z,99.90
2022-09-16T20:49:14.453Z,99.90
2022-09-16T20:51:42.457Z,99.90
2022-09-16T20:54:13.177Z,99.90
2022-09-16T20:56:42.775Z,99.90
2022-09-16T20:59:14.138Z,99.90
2022-09-16T21:01:42.630Z,99.90
2022-09-16T21:04:14.477Z,99.90
2022-09-16T21:06:42.686Z,99.90
2022-09-16T21:09:12.719Z,99.90
2022-09-16T21:11:45.101Z,99.90
2022-09-16T21:14:16.505Z,99.90
2022-09-16T21:16:46.105Z,99.90
2022-09-16T21:19:14.590Z,99.90
2022-09-16T21:21:46.255Z,99.90
2022-09-16T21:24:15.804Z,99.90
2022-09-16T21:26:44.502Z,99.90
2022-09-16T21:29:15.717Z,99.90
2022-09-16T21:31:44.379Z,99.90
2022-09-16T21:34:15.387Z,99.90
2022-09-16T21:36:44.587Z,99.90
2022-09-16T21:39:13.758Z,99.90
2022-09-16T21:41:42.237Z,99.90
2022-09-16T21:44:10.421Z,99.90
2022-09-16T21:46:43.179Z,99.90
2022-09-16T21:49:22.358Z,99.90
2022-09-16T21:51:51.101Z,99.90
2022-09-16T21:54:20.570Z,99.90
2022-09-16T21:56:49.679Z,99.90
2022-09-16T21:59:19.705Z,99.90
2022-09-16T22:01:50.893Z,99.90
2022-09-16T22:04:21.106Z,99.90
2022-09-16T22:06:49.822Z,99.90
2022-09-16T22:09:18.298Z,99.90
2022-09-16T22:11:46.510Z,99.90
2022-09-16T22:14:14.571Z,99.90
2022-09-16T22:16:42.927Z,99.90
2022-09-16T22:19:14.531Z,99.90
2022-09-16T22:21:44.558Z,99.90
2022-09-16T22:24:12.867Z,99.90
2022-09-16T22:26:41.407Z,99.90
2022-09-16T22:29:11.412Z,99.90
2022-09-16T22:31:41.393Z,99.90
2022-09-16T22:34:09.872Z,99.90
2022-09-16T22:36:40.306Z,99.90
2022-09-16T22:39:13.460Z,99.90
2022-09-16T22:41:41.893Z,99.90
2022-09-16T22:44:10.059Z,99.90
2022-09-16T22:46:41.701Z,99.90
2022-09-16T22:49:10.927Z,99.90
2022-09-16T22:51:40.262Z,99.90
2022-09-16T22:54:09.445Z,99.90
2022-09-16T22:56:37.704Z,99.90
2022-09-16T22:59:07.898Z,99.90
2022-09-16T23:01:38.921Z,99.90
2022-09-16T23:04:08.916Z,99.90
2022-09-16T23:06:38.250Z,99.90
2022-09-16T23:09:08.564Z,99.90
2022-09-16T23:11:37.067Z,99.90
2022-09-16T23:14:06.397Z,99.90
2022-09-16T23:16:37.241Z,99.90
2022-09-16T23:19:11.116Z,99.90
2022-09-16T23:21:40.149Z,99.90
2022-09-16T23:24:17.658Z,99.90
2022-09-16T23:26:46.905Z,99.90
2022-09-16T23:29:16.628Z,99.90
2022-09-16T23:31:45.669Z,99.90
2022-09-16T23:34:16.643Z,99.90
2022-09-16T23:36:45.320Z,99.90
2022-09-16T23:39:16.584Z,99.90
2022-09-16T23:41:45.373Z,99.90
2022-09-16T23:44:15.657Z,99.90
2022-09-16T23:46:44.433Z,99.90
2022-09-16T23:49:13.113Z,99.90
2022-09-16T23:51:41.065Z,99.90
2022-09-16T23:54:09.325Z,99.90
2022-09-16T23:56:38.775Z,99.90
2022-09-16T23:59:06.719Z,99.90
